Jersey City, Wisconsin
Current Conditions -  °F | °C
As of 6:35 AM on Friday 31 Oct 2014 (Local Time) from KTKV Reporting Station
Overcast Overcast  
Wind Chill: 21°   Ceiling: 2500
Heat Index: 28°   Visibility: 10mi
Dew Point: 23°   Wind: 6mph
Humidity: 84%   Direction: 350°N
Pressure: 30.31"   Gusts: 12mph
Location:  45.5047°N, 89.7732°W
Report Text: KTKV 311135Z AUTO 35005G10KT 10SM SCT015 BKN025 OVC030 M02/M05 A3031 RMK AO2 T10241048
Loading
Personal Weather Stations






























Interactive Weather Map
Tropical Storm Tracking
New forecast layout! Learn more

10-Day Weather Forecast

Advertisements
Track Severe Weather on mobile